createdAt,value
2023-05-06T00:00:00.280Z,47.83
2023-05-06T00:02:31.248Z,46.85
2023-05-06T00:05:04.194Z,47.82
2023-05-06T00:07:35.308Z,45.08
2023-05-06T00:10:08.595Z,45.81
2023-05-06T00:12:39.579Z,47.19
2023-05-06T00:15:13.647Z,41.37
2023-05-06T00:17:44.286Z,41.71
2023-05-06T00:20:15.690Z,43.95
2023-05-06T00:22:46.246Z,43.15
2023-05-06T00:25:18.463Z,41.48
2023-05-06T00:27:48.947Z,41.64
2023-05-06T00:30:19.512Z,43.54
2023-05-06T00:32:50.030Z,42.66
2023-05-06T00:35:20.794Z,43.82
2023-05-06T00:37:58.741Z,44.62
2023-05-06T00:40:30.925Z,44.19
2023-05-06T00:43:01.385Z,43.39
2023-05-06T00:45:32.018Z,42.90
2023-05-06T00:48:02.657Z,42.95
2023-05-06T00:50:34.131Z,43.41
2023-05-06T00:53:06.789Z,42.08
2023-05-06T00:55:39.214Z,40.65
2023-05-06T00:58:10.101Z,40.45
2023-05-06T01:00:41.050Z,41.56
2023-05-06T01:03:11.602Z,40.45
2023-05-06T01:05:54.036Z,39.17
2023-05-06T01:08:32.407Z,40.08
2023-05-06T01:11:13.508Z,38.48
2023-05-06T01:13:51.386Z,38.17
2023-05-06T01:16:26.256Z,38.87
2023-05-06T01:18:58.658Z,38.28
2023-05-06T01:21:36.102Z,38.27
2023-05-06T01:24:08.723Z,38.88
2023-05-06T01:26:43.283Z,39.37
2023-05-06T01:29:17.756Z,38.73
2023-05-06T01:31:53.855Z,38.37
2023-05-06T01:34:30.950Z,37.83
2023-05-06T01:37:10.481Z,37.14
2023-05-06T01:39:44.293Z,37.25
2023-05-06T01:42:16.730Z,37.76
2023-05-06T01:44:47.660Z,38.55
2023-05-06T01:47:19.925Z,38.56
2023-05-06T01:49:51.163Z,37.33
2023-05-06T01:52:23.381Z,36.66
2023-05-06T01:54:55.538Z,35.98
2023-05-06T01:57:25.961Z,36.68
2023-05-06T01:59:56.636Z,37.15
2023-05-06T02:02:27.250Z,37.58
2023-05-06T02:04:57.764Z,37.79
2023-05-06T02:07:28.246Z,37.98
2023-05-06T02:10:00.628Z,38.71
2023-05-06T02:12:31.117Z,38.20
2023-05-06T02:15:01.660Z,37.83
2023-05-06T02:17:32.195Z,38.35
2023-05-06T02:20:02.611Z,37.72
2023-05-06T02:22:33.074Z,38.48
2023-05-06T02:25:05.165Z,38.55
2023-05-06T02:27:35.585Z,37.95
2023-05-06T02:30:06.158Z,37.16
2023-05-06T02:32:36.942Z,37.92
2023-05-06T02:35:08.401Z,37.52
2023-05-06T02:37:39.034Z,36.91
2023-05-06T02:40:12.287Z,36.62
2023-05-06T02:42:42.891Z,37.32
2023-05-06T02:45:14.294Z,36.33
2023-05-06T02:47:44.942Z,37.05
2023-05-06T02:50:15.463Z,37.35
2023-05-06T02:52:49.079Z,37.25
2023-05-06T02:55:21.449Z,37.10
2023-05-06T02:57:51.896Z,38.79
2023-05-06T03:00:23.155Z,38.54
2023-05-06T03:02:53.766Z,38.04
2023-05-06T03:05:24.336Z,38.23
2023-05-06T03:07:54.827Z,39.25
2023-05-06T03:10:27.026Z,38.80
2023-05-06T03:12:57.513Z,39.47
2023-05-06T03:15:28.126Z,38.22
2023-05-06T03:17:58.611Z,38.11
2023-05-06T03:20:29.732Z,37.81
2023-05-06T03:23:00.197Z,39.03
2023-05-06T03:25:32.467Z,36.38
2023-05-06T03:28:02.923Z,37.26
2023-05-06T03:30:33.434Z,37.49
2023-05-06T03:33:04.679Z,37.92
2023-05-06T03:35:35.330Z,38.40
2023-05-06T03:38:05.852Z,39.52
2023-05-06T03:40:38.232Z,38.06
2023-05-06T03:43:08.646Z,38.98
2023-05-06T03:45:39.854Z,38.94
2023-05-06T03:48:10.435Z,38.82
2023-05-06T03:50:41.190Z,40.25
2023-05-06T03:53:11.854Z,39.35
2023-05-06T03:55:44.440Z,39.76
2023-05-06T03:58:15.042Z,39.06
2023-05-06T04:00:45.478Z,39.18
2023-05-06T04:03:16.097Z,39.18
2023-05-06T04:05:46.661Z,38.82
2023-05-06T04:08:18.033Z,38.53
2023-05-06T04:10:50.171Z,37.75
2023-05-06T04:13:20.679Z,38.51
2023-05-06T04:15:52.184Z,39.31
2023-05-06T04:18:23.215Z,38.95
2023-05-06T04:20:53.577Z,38.66
2023-05-06T04:23:24.301Z,39.41
2023-05-06T04:25:56.653Z,39.17
2023-05-06T04:28:27.222Z,39.11
2023-05-06T04:30:57.719Z,38.99
2023-05-06T04:33:28.306Z,39.79
2023-05-06T04:35:58.886Z,40.00
2023-05-06T04:38:32.702Z,39.69
2023-05-06T04:41:04.829Z,39.84
2023-05-06T04:43:35.325Z,40.22
2023-05-06T04:46:05.833Z,39.90
2023-05-06T04:48:36.363Z,39.89
2023-05-06T04:51:07.355Z,40.91
2023-05-06T04:53:38.195Z,40.65
2023-05-06T04:56:10.822Z,39.35
2023-05-06T04:58:41.192Z,38.97
2023-05-06T05:01:12.561Z,39.76
2023-05-06T05:03:43.195Z,40.08
2023-05-06T05:06:14.223Z,39.30
2023-05-06T05:08:44.953Z,39.75
2023-05-06T05:11:17.371Z,39.66
2023-05-06T05:13:48.050Z,39.97
2023-05-06T05:16:18.601Z,42.21
2023-05-06T05:18:49.144Z,43.85
2023-05-06T05:21:19.629Z,44.19
2023-05-06T05:23:50.270Z,44.83
2023-05-06T05:26:22.717Z,44.72
2023-05-06T05:28:53.162Z,44.35
2023-05-06T05:31:23.712Z,43.17
2023-05-06T05:33:54.460Z,44.02
2023-05-06T05:36:28.550Z,44.19
2023-05-06T05:38:59.762Z,44.15
2023-05-06T05:41:38.710Z,44.71
2023-05-06T05:44:09.660Z,43.99
2023-05-06T05:46:40.247Z,42.33
2023-05-06T05:49:10.777Z,42.43
2023-05-06T05:51:41.315Z,43.55
2023-05-06T05:54:11.808Z,43.83
2023-05-06T05:56:43.970Z,44.41
2023-05-06T05:59:14.351Z,44.06
2023-05-06T06:01:44.724Z,44.11
2023-05-06T06:04:15.244Z,44.40
2023-05-06T06:06:45.776Z,44.77
2023-05-06T06:09:17.614Z,44.96
2023-05-06T06:11:49.819Z,45.38
2023-05-06T06:14:20.369Z,45.28
2023-05-06T06:17:06.603Z,45.25
2023-05-06T06:19:37.050Z,45.71
2023-05-06T06:22:07.479Z,46.10
2023-05-06T06:24:38.021Z,46.48
2023-05-06T06:27:10.492Z,46.75
2023-05-06T06:29:41.102Z,46.71
2023-05-06T06:32:11.627Z,45.63
2023-05-06T06:34:42.169Z,44.95
2023-05-06T06:37:13.625Z,44.34
2023-05-06T06:39:44.167Z,43.28
2023-05-06T06:42:16.972Z,43.35
2023-05-06T06:44:47.555Z,44.88
2023-05-06T06:47:18.108Z,43.50
2023-05-06T06:49:48.705Z,43.32
2023-05-06T06:52:19.244Z,43.19
2023-05-06T06:54:49.894Z,43.65
2023-05-06T06:57:22.139Z,42.83
2023-05-06T06:59:54.529Z,43.56
2023-05-06T07:02:25.049Z,43.55
2023-05-06T07:04:55.986Z,43.34
2023-05-06T07:07:26.532Z,43.16
2023-05-06T07:10:13.582Z,43.31
2023-05-06T07:12:45.723Z,43.21
2023-05-06T07:15:16.243Z,43.90
2023-05-06T07:17:46.829Z,44.09
2023-05-06T07:20:17.334Z,44.02
2023-05-06T07:22:50.427Z,44.17
2023-05-06T07:25:21.031Z,44.66
2023-05-06T07:27:53.161Z,45.00
2023-05-06T07:30:23.672Z,44.83
2023-05-06T07:32:54.301Z,44.47
2023-05-06T07:35:24.933Z,44.61
2023-05-06T07:37:55.393Z,44.68
2023-05-06T07:40:26.027Z,44.30
2023-05-06T07:42:58.179Z,44.28
2023-05-06T07:45:28.708Z,45.04
2023-05-06T07:47:59.371Z,45.11
2023-05-06T07:50:29.889Z,44.42
2023-05-06T07:53:00.995Z,44.49
2023-05-06T07:55:33.826Z,44.75
2023-05-06T07:58:07.134Z,44.69
2023-05-06T08:00:37.648Z,45.44
2023-05-06T08:03:08.351Z,44.86
2023-05-06T08:05:39.081Z,44.67
2023-05-06T08:08:09.607Z,45.23
2023-05-06T08:10:40.121Z,44.96
2023-05-06T08:13:12.528Z,45.10
2023-05-06T08:15:43.527Z,45.52
2023-05-06T08:18:21.867Z,45.20
2023-05-06T08:20:53.183Z,45.81
2023-05-06T08:23:24.007Z,45.55
2023-05-06T08:25:54.578Z,45.26
2023-05-06T08:28:26.809Z,45.40
2023-05-06T08:30:57.367Z,45.16
2023-05-06T08:33:28.096Z,45.46
2023-05-06T08:35:58.933Z,45.91
2023-05-06T08:38:29.747Z,46.09
2023-05-06T08:41:02.895Z,46.01
2023-05-06T08:43:38.028Z,46.63
2023-05-06T08:46:08.799Z,46.78
2023-05-06T08:48:39.719Z,46.72
2023-05-06T08:51:10.917Z,46.92
2023-05-06T08:53:45.181Z,47.01
2023-05-06T08:56:17.756Z,47.05
2023-05-06T08:58:51.542Z,47.27
2023-05-06T09:01:23.089Z,47.30
2023-05-06T09:03:54.280Z,47.47
2023-05-06T09:06:29.304Z,47.67
2023-05-06T09:08:59.913Z,48.08
2023-05-06T09:11:32.705Z,47.98
2023-05-06T09:14:22.337Z,47.99
2023-05-06T09:16:53.813Z,48.39
2023-05-06T09:19:26.553Z,48.40
2023-05-06T09:21:57.585Z,48.71
2023-05-06T09:24:28.336Z,48.51
2023-05-06T09:26:59.715Z,48.73
2023-05-06T09:29:31.882Z,49.49
2023-05-06T09:32:11.222Z,49.85
2023-05-06T09:34:42.891Z,50.45
2023-05-06T09:37:13.471Z,50.54
2023-05-06T09:39:43.999Z,51.29
2023-05-06T09:42:15.328Z,51.32
2023-05-06T09:44:47.493Z,51.53
2023-05-06T09:47:18.206Z,51.95
2023-05-06T09:49:48.909Z,52.47
2023-05-06T09:52:20.288Z,52.19
2023-05-06T09:54:52.993Z,51.76
2023-05-06T09:57:25.317Z,52.35
2023-05-06T09:59:58.282Z,52.39
2023-05-06T10:02:30.271Z,52.98
2023-05-06T10:05:05.410Z,53.17
2023-05-06T10:07:36.871Z,53.75
2023-05-06T10:10:09.610Z,53.67
2023-05-06T10:12:40.326Z,54.19
2023-05-06T10:15:13.329Z,54.29
2023-05-06T10:17:48.336Z,54.31
2023-05-06T10:20:20.526Z,54.40
2023-05-06T10:23:02.608Z,54.88
2023-05-06T10:25:43.351Z,54.86
2023-05-06T10:28:24.061Z,55.30
2023-05-06T10:31:03.638Z,55.69
2023-05-06T10:33:34.324Z,55.61
2023-05-06T10:36:16.468Z,55.83
2023-05-06T10:38:50.066Z,56.39
2023-05-06T10:41:24.588Z,56.67
2023-05-06T10:44:00.288Z,56.78
2023-05-06T10:46:41.826Z,57.38
2023-05-06T10:49:21.810Z,57.92
2023-05-06T10:52:11.748Z,57.75
2023-05-06T10:54:55.802Z,59.13
2023-05-06T10:57:33.544Z,59.80
2023-05-06T11:00:06.832Z,59.75
2023-05-06T11:02:41.698Z,59.86
2023-05-06T11:05:14.017Z,59.80
2023-05-06T11:07:46.061Z,60.21
2023-05-06T11:10:17.514Z,60.39
2023-05-06T11:12:51.029Z,61.43
2023-05-06T11:15:29.052Z,62.17
2023-05-06T11:18:02.878Z,62.06
2023-05-06T11:20:34.355Z,62.13
2023-05-06T11:23:06.176Z,62.48
2023-05-06T11:25:44.629Z,62.86
2023-05-06T11:28:17.348Z,63.07
2023-05-06T11:30:58.393Z,63.41
2023-05-06T11:33:35.419Z,63.74
2023-05-06T11:36:07.604Z,63.91
2023-05-06T11:38:46.869Z,64.57
2023-05-06T11:41:18.590Z,64.65
2023-05-06T11:43:51.450Z,65.47
2023-05-06T11:46:23.775Z,66.37
2023-05-06T11:48:57.253Z,66.55
2023-05-06T11:51:28.277Z,66.84
2023-05-06T11:54:08.637Z,66.87
2023-05-06T11:56:55.275Z,66.65
2023-05-06T11:59:33.663Z,66.42
2023-05-06T12:02:06.225Z,66.82
2023-05-06T12:04:46.610Z,67.30
2023-05-06T12:07:18.764Z,67.60
2023-05-06T12:09:52.234Z,67.87
2023-05-06T12:12:27.417Z,67.97
2023-05-06T12:14:59.213Z,68.49
2023-05-06T12:17:30.890Z,69.02
2023-05-06T12:20:04.157Z,69.44
2023-05-06T12:22:34.948Z,70.38
2023-05-06T12:25:17.288Z,70.42
2023-05-06T12:27:49.501Z,70.48
2023-05-06T12:30:32.689Z,70.27
2023-05-06T12:33:07.289Z,70.41
2023-05-06T12:35:39.715Z,70.37
2023-05-06T12:38:15.224Z,70.90
2023-05-06T12:40:46.791Z,70.89
2023-05-06T12:43:17.399Z,71.46
2023-05-06T12:46:05.010Z,71.78
2023-05-06T12:48:35.703Z,72.14
2023-05-06T12:54:01.307Z,73.43
2023-05-06T12:56:34.831Z,73.82
2023-05-06T12:59:06.113Z,73.79
2023-05-06T13:01:40.095Z,73.60
2023-05-06T13:04:11.328Z,73.67
2023-05-06T13:06:41.869Z,74.73
2023-05-06T13:09:15.338Z,75.71
2023-05-06T13:11:47.206Z,76.03
2023-05-06T13:14:19.025Z,77.07
2023-05-06T13:16:49.745Z,76.92
2023-05-06T13:19:31.692Z,78.08
2023-05-06T13:22:03.947Z,78.87
2023-05-06T13:24:36.382Z,79.30
2023-05-06T13:27:07.169Z,79.82
2023-05-06T13:29:38.470Z,80.01
2023-05-06T13:32:09.305Z,80.41
2023-05-06T13:34:40.886Z,80.51
2023-05-06T13:37:11.473Z,80.75
2023-05-06T13:39:44.535Z,80.78
2023-05-06T13:42:15.186Z,80.97
2023-05-06T13:44:45.750Z,81.30
2023-05-06T13:47:16.216Z,81.06
2023-05-06T13:49:46.881Z,81.05
2023-05-06T13:52:17.604Z,81.11
2023-05-06T13:54:49.796Z,81.23
2023-05-06T13:57:20.352Z,81.60
2023-05-06T13:59:50.854Z,81.72
2023-05-06T14:02:23.501Z,81.67
2023-05-06T14:04:54.082Z,82.62
2023-05-06T14:07:27.209Z,81.94
2023-05-06T14:10:01.878Z,82.42
2023-05-06T14:12:40.066Z,82.36
2023-05-06T14:15:11.287Z,82.45
2023-05-06T14:17:42.180Z,82.52
2023-05-06T14:20:13.610Z,82.84
2023-05-06T14:22:47.466Z,83.24
2023-05-06T14:25:21.874Z,82.89
2023-05-06T14:27:57.769Z,82.81
2023-05-06T14:30:28.567Z,83.30
2023-05-06T14:33:01.911Z,83.86
2023-05-06T14:35:32.508Z,84.65
2023-05-06T14:38:03.049Z,85.31
2023-05-06T14:40:42.413Z,85.97
2023-05-06T14:43:12.862Z,86.10
2023-05-06T14:45:45.729Z,86.36
2023-05-06T14:48:21.175Z,86.57
2023-05-06T14:50:57.212Z,86.31
2023-05-06T14:53:27.774Z,85.86
2023-05-06T14:55:59.854Z,85.64
2023-05-06T14:58:32.994Z,86.09
2023-05-06T15:01:03.570Z,86.03
2023-05-06T15:03:34.114Z,86.49
2023-05-06T15:06:06.812Z,86.60
2023-05-06T15:08:37.939Z,87.31
2023-05-06T15:11:10.345Z,88.02
2023-05-06T15:13:42.968Z,88.14
2023-05-06T15:16:13.908Z,87.98
2023-05-06T15:18:47.031Z,88.01
2023-05-06T15:21:18.339Z,87.87
2023-05-06T15:23:52.645Z,87.58
2023-05-06T15:26:24.926Z,86.99
2023-05-06T15:28:55.550Z,86.88
2023-05-06T15:31:26.286Z,86.36
2023-05-06T15:33:58.849Z,86.19
2023-05-06T15:36:31.022Z,85.74
2023-05-06T15:39:04.745Z,85.90
2023-05-06T15:41:39.354Z,85.74
2023-05-06T15:44:15.955Z,85.72
2023-05-06T15:46:51.702Z,86.07
2023-05-06T15:49:45.461Z,86.06
2023-05-06T15:52:14.517Z,86.08
2023-05-06T15:54:50.961Z,86.01
2023-05-06T15:57:23.171Z,86.39
2023-05-06T15:59:53.707Z,87.10
2023-05-06T16:02:33.157Z,87.11
2023-05-06T16:05:08.520Z,87.28
2023-05-06T16:07:41.192Z,86.50
2023-05-06T16:10:17.736Z,86.62
2023-05-06T16:12:52.914Z,86.55
2023-05-06T16:15:23.994Z,86.59
2023-05-06T16:17:54.652Z,86.63
2023-05-06T16:20:25.242Z,87.00
2023-05-06T16:22:56.247Z,87.39
2023-05-06T16:25:28.948Z,87.13
2023-05-06T16:28:01.362Z,87.17
2023-05-06T16:30:32.361Z,86.84
2023-05-06T16:33:03.065Z,87.23
2023-05-06T16:35:42.790Z,87.38
2023-05-06T16:38:19.187Z,87.62
2023-05-06T16:40:52.110Z,87.12
2023-05-06T16:43:24.156Z,86.68
2023-05-06T16:45:57.126Z,86.30
2023-05-06T16:48:29.520Z,86.21
2023-05-06T16:51:03.270Z,85.93
2023-05-06T16:53:36.808Z,85.74
2023-05-06T16:56:07.655Z,86.34
2023-05-06T16:58:42.983Z,86.36
2023-05-06T17:01:13.652Z,86.18
2023-05-06T17:03:44.376Z,86.50
2023-05-06T17:06:15.170Z,86.64
2023-05-06T17:08:45.711Z,87.27
2023-05-06T17:11:18.110Z,87.63
2023-05-06T17:13:50.725Z,87.71
2023-05-06T17:16:24.079Z,87.76
2023-05-06T17:18:59.068Z,87.48
2023-05-06T17:21:32.259Z,87.07
2023-05-06T17:24:05.635Z,86.66
2023-05-06T17:26:36.867Z,86.81
2023-05-06T17:29:10.426Z,86.54
2023-05-06T17:31:45.585Z,86.38
2023-05-06T17:36:52.895Z,86.12
2023-05-06T17:39:27.303Z,85.75
2023-05-06T17:42:02.019Z,85.92
2023-05-06T17:44:38.270Z,86.01
2023-05-06T17:47:11.754Z,85.92
2023-05-06T17:49:44.342Z,85.66
2023-05-06T17:52:18.646Z,85.59
2023-05-06T17:55:05.809Z,85.42
2023-05-06T17:57:46.743Z,85.25
2023-05-06T18:00:22.188Z,85.70
2023-05-06T18:02:58.098Z,85.93
2023-05-06T18:05:28.747Z,86.48
2023-05-06T18:08:06.496Z,86.05
2023-05-06T18:10:36.966Z,86.39
2023-05-06T18:13:14.333Z,86.44
2023-05-06T18:15:47.796Z,86.33
2023-05-06T18:18:20.979Z,86.14
2023-05-06T18:20:55.574Z,86.85
2023-05-06T18:23:26.039Z,87.13
2023-05-06T18:25:59.560Z,87.31
2023-05-06T18:28:29.998Z,87.43
2023-05-06T18:31:02.232Z,87.75
2023-05-06T18:33:45.021Z,87.33
2023-05-06T18:36:20.830Z,87.32
2023-05-06T18:38:51.940Z,87.44
2023-05-06T18:41:22.644Z,87.79
2023-05-06T18:43:53.243Z,87.95
2023-05-06T18:46:25.473Z,88.29
2023-05-06T18:48:56.826Z,88.97
2023-05-06T18:51:27.478Z,89.14
2023-05-06T18:53:58.025Z,89.16
2023-05-06T18:56:33.487Z,89.23
2023-05-06T18:59:04.018Z,89.82
2023-05-06T19:01:36.225Z,89.93
2023-05-06T19:04:06.972Z,90.17
2023-05-06T19:06:39.195Z,89.59
2023-05-06T19:09:09.638Z,89.45
2023-05-06T19:11:40.053Z,89.31
2023-05-06T19:14:10.404Z,89.20
2023-05-06T19:16:42.646Z,89.43
2023-05-06T19:19:13.209Z,89.35
2023-05-06T19:21:43.625Z,89.37
2023-05-06T19:24:14.083Z,89.42
2023-05-06T19:26:44.505Z,89.28
2023-05-06T19:29:15.471Z,89.34
2023-05-06T19:31:47.661Z,89.44
2023-05-06T19:34:18.198Z,89.80
2023-05-06T19:36:48.720Z,90.01
2023-05-06T19:39:19.246Z,90.02
2023-05-06T19:41:49.753Z,90.18
2023-05-06T19:44:20.187Z,89.86
2023-05-06T19:46:56.419Z,89.92
2023-05-06T19:49:26.964Z,89.85
2023-05-06T19:51:57.396Z,89.53
2023-05-06T19:54:27.827Z,89.09
2023-05-06T19:56:58.211Z,88.16
2023-05-06T19:59:28.736Z,87.77
2023-05-06T20:02:03.130Z,86.61
2023-05-06T20:04:34.388Z,86.13
2023-05-06T20:07:07.887Z,85.00
2023-05-06T20:09:38.331Z,84.02
2023-05-06T20:12:09.594Z,83.43
2023-05-06T20:14:40.061Z,82.12
2023-05-06T20:17:12.283Z,81.01
2023-05-06T20:19:42.657Z,79.16
2023-05-06T20:22:13.169Z,79.45
2023-05-06T20:24:45.076Z,79.66
2023-05-06T20:27:15.651Z,78.87
2023-05-06T20:29:46.401Z,77.78
2023-05-06T20:32:18.732Z,76.35
2023-05-06T20:34:49.333Z,75.65
2023-05-06T20:37:20.914Z,74.47
2023-05-06T20:39:51.320Z,74.54
2023-05-06T20:42:22.709Z,74.39
2023-05-06T20:44:54.183Z,74.39
2023-05-06T20:47:26.382Z,73.08
2023-05-06T20:49:57.573Z,72.75
2023-05-06T20:52:28.285Z,73.15
2023-05-06T20:54:58.939Z,71.94
2023-05-06T20:57:29.527Z,71.54
2023-05-06T21:00:00.087Z,71.25
2023-05-06T21:02:40.026Z,70.99
2023-05-06T21:05:12.793Z,71.57
2023-05-06T21:07:43.621Z,71.45
2023-05-06T21:10:15.239Z,71.06
2023-05-06T21:12:53.323Z,69.86
2023-05-06T21:15:23.847Z,69.46
2023-05-06T21:17:56.059Z,69.32
2023-05-06T21:20:26.570Z,69.43
2023-05-06T21:22:56.949Z,69.25
2023-05-06T21:25:27.726Z,69.44
2023-05-06T21:27:59.238Z,69.29
2023-05-06T21:30:30.133Z,69.10
2023-05-06T21:33:03.167Z,68.57
2023-05-06T21:35:33.829Z,68.72
2023-05-06T21:38:05.888Z,68.13
2023-05-06T21:40:36.343Z,66.43
2023-05-06T21:43:07.029Z,65.08
2023-05-06T21:45:37.488Z,63.19
2023-05-06T21:48:10.102Z,61.20
2023-05-06T21:50:40.793Z,57.29
2023-05-06T21:53:12.269Z,55.98
2023-05-06T21:55:44.870Z,55.11
2023-05-06T21:58:16.089Z,53.59
2023-05-06T22:00:47.088Z,53.87
2023-05-06T22:03:19.244Z,52.28
2023-05-06T22:05:50.064Z,51.73
2023-05-06T22:08:20.626Z,50.10
2023-05-06T22:10:51.242Z,49.67
2023-05-06T22:13:23.553Z,51.70
2023-05-06T22:15:55.470Z,49.60
2023-05-06T22:18:28.822Z,47.47
2023-05-06T22:20:59.517Z,46.87
2023-05-06T22:23:30.053Z,47.24
2023-05-06T22:26:00.608Z,46.76
2023-05-06T22:28:31.186Z,46.65
2023-05-06T22:31:01.780Z,46.15
2023-05-06T22:33:33.845Z,44.20
2023-05-06T22:36:04.305Z,44.36
2023-05-06T22:38:34.825Z,44.97
2023-05-06T22:41:05.305Z,45.57
2023-05-06T22:43:35.779Z,43.45
2023-05-06T22:46:13.009Z,45.00
2023-05-06T22:48:46.064Z,45.01
2023-05-06T22:51:18.190Z,43.28
2023-05-06T22:53:49.321Z,42.13
2023-05-06T22:56:20.705Z,41.01
2023-05-06T22:58:51.274Z,41.26
2023-05-06T23:01:21.893Z,42.01
2023-05-06T23:03:54.033Z,41.79
2023-05-06T23:06:26.570Z,41.22
2023-05-06T23:08:57.156Z,39.77
2023-05-06T23:11:28.021Z,41.84
2023-05-06T23:13:58.524Z,41.10
2023-05-06T23:16:30.282Z,41.03
2023-05-06T23:19:02.630Z,38.93
2023-05-06T23:21:33.286Z,39.01
2023-05-06T23:24:03.823Z,40.09
2023-05-06T23:26:34.303Z,40.14
2023-05-06T23:29:04.768Z,38.44
2023-05-06T23:31:37.514Z,37.55
2023-05-06T23:34:09.732Z,38.35
2023-05-06T23:36:40.245Z,38.28
2023-05-06T23:39:12.389Z,37.17
2023-05-06T23:41:43.068Z,37.96
2023-05-06T23:44:13.563Z,38.45
2023-05-06T23:46:45.046Z,37.01
2023-05-06T23:49:17.609Z,37.44
2023-05-06T23:51:48.091Z,36.52
2023-05-06T23:54:18.532Z,38.00
2023-05-06T23:56:49.061Z,39.19
2023-05-06T23:59:19.465Z,40.28
